sensor_id;sensor_type;location;lat;lon;timestamp;P1;durP1;ratioP1;P2;durP2;ratioP2
80981;SDS011;70440;53.064;8.926;2024-03-08T00:00:31;0.43;;;0.40;;
80981;SDS011;70440;53.064;8.926;2024-03-08T00:02:58;0.50;;;0.40;;
80981;SDS011;70440;53.064;8.926;2024-03-08T00:05:26;0.20;;;0.20;;
80981;SDS011;70440;53.064;8.926;2024-03-08T00:07:51;1.20;;;0.20;;
80981;SDS011;70440;53.064;8.926;2024-03-08T00:10:17;1.10;;;0.52;;
80981;SDS011;70440;53.064;8.926;2024-03-08T00:12:44;0.43;;;0.40;;
80981;SDS011;70440;53.064;8.926;2024-03-08T00:15:15;0.50;;;0.47;;
80981;SDS011;70440;53.064;8.926;2024-03-08T00:17:42;0.82;;;0.60;;
80981;SDS011;70440;53.064;8.926;2024-03-08T00:20:08;0.40;;;0.35;;
80981;SDS011;70440;53.064;8.926;2024-03-08T00:22:37;1.42;;;0.40;;
80981;SDS011;70440;53.064;8.926;2024-03-08T00:25:03;0.85;;;0.45;;
80981;SDS011;70440;53.064;8.926;2024-03-08T00:27:29;0.47;;;0.35;;
80981;SDS011;70440;53.064;8.926;2024-03-08T00:29:55;0.28;;;0.22;;
80981;SDS011;70440;53.064;8.926;2024-03-08T00:32:21;0.63;;;0.30;;
80981;SDS011;70440;53.064;8.926;2024-03-08T00:34:49;0.55;;;0.30;;
80981;SDS011;70440;53.064;8.926;2024-03-08T00:37:16;0.45;;;0.40;;
80981;SDS011;70440;53.064;8.926;2024-03-08T00:39:42;0.73;;;0.32;;
80981;SDS011;70440;53.064;8.926;2024-03-08T00:42:07;0.93;;;0.40;;
80981;SDS011;70440;53.064;8.926;2024-03-08T00:44:33;0.43;;;0.30;;
80981;SDS011;70440;53.064;8.926;2024-03-08T00:46:58;0.28;;;0.20;;
80981;SDS011;70440;53.064;8.926;2024-03-08T00:49:24;0.90;;;0.50;;
80981;SDS011;70440;53.064;8.926;2024-03-08T00:51:50;0.40;;;0.20;;
80981;SDS011;70440;53.064;8.926;2024-03-08T00:54:15;0.43;;;0.30;;
80981;SDS011;70440;53.064;8.926;2024-03-08T00:56:41;0.75;;;0.60;;
80981;SDS011;70440;53.064;8.926;2024-03-08T00:59:07;1.05;;;0.30;;
80981;SDS011;70440;53.064;8.926;2024-03-08T01:01:32;0.82;;;0.50;;
80981;SDS011;70440;53.064;8.926;2024-03-08T01:03:57;1.63;;;0.60;;
80981;SDS011;70440;53.064;8.926;2024-03-08T01:06:23;0.93;;;0.52;;
80981;SDS011;70440;53.064;8.926;2024-03-08T01:08:49;0.70;;;0.50;;
80981;SDS011;70440;53.064;8.926;2024-03-08T01:11:16;0.47;;;0.30;;
80981;SDS011;70440;53.064;8.926;2024-03-08T01:13:43;0.43;;;0.30;;
80981;SDS011;70440;53.064;8.926;2024-03-08T01:16:08;0.68;;;0.63;;
80981;SDS011;70440;53.064;8.926;2024-03-08T01:18:33;0.55;;;0.50;;
80981;SDS011;70440;53.064;8.926;2024-03-08T01:20:59;0.40;;;0.30;;
80981;SDS011;70440;53.064;8.926;2024-03-08T01:23:24;1.10;;;0.60;;
80981;SDS011;70440;53.064;8.926;2024-03-08T01:25:49;0.77;;;0.40;;
80981;SDS011;70440;53.064;8.926;2024-03-08T01:28:21;0.57;;;0.30;;
80981;SDS011;70440;53.064;8.926;2024-03-08T01:30:48;0.70;;;0.40;;
80981;SDS011;70440;53.064;8.926;2024-03-08T01:33:15;0.80;;;0.60;;
80981;SDS011;70440;53.064;8.926;2024-03-08T01:35:40;0.90;;;0.50;;
80981;SDS011;70440;53.064;8.926;2024-03-08T01:38:06;0.50;;;0.50;;
80981;SDS011;70440;53.064;8.926;2024-03-08T01:40:31;1.15;;;0.50;;
80981;SDS011;70440;53.064;8.926;2024-03-08T01:42:57;1.05;;;0.73;;
80981;SDS011;70440;53.064;8.926;2024-03-08T01:45:22;1.58;;;0.70;;
80981;SDS011;70440;53.064;8.926;2024-03-08T01:47:47;1.33;;;0.68;;
80981;SDS011;70440;53.064;8.926;2024-03-08T01:50:13;0.70;;;0.38;;
80981;SDS011;70440;53.064;8.926;2024-03-08T01:52:38;0.30;;;0.30;;
80981;SDS011;70440;53.064;8.926;2024-03-08T01:55:04;0.45;;;0.40;;
80981;SDS011;70440;53.064;8.926;2024-03-08T01:57:32;0.60;;;0.47;;
80981;SDS011;70440;53.064;8.926;2024-03-08T02:00:00;0.30;;;0.20;;
80981;SDS011;70440;53.064;8.926;2024-03-08T02:02:28;0.90;;;0.40;;
80981;SDS011;70440;53.064;8.926;2024-03-08T02:05:00;0.43;;;0.32;;
80981;SDS011;70440;53.064;8.926;2024-03-08T02:07:25;0.40;;;0.40;;
80981;SDS011;70440;53.064;8.926;2024-03-08T02:09:51;0.47;;;0.30;;
80981;SDS011;70440;53.064;8.926;2024-03-08T02:12:16;0.47;;;0.32;;
80981;SDS011;70440;53.064;8.926;2024-03-08T02:14:41;0.43;;;0.30;;
80981;SDS011;70440;53.064;8.926;2024-03-08T02:17:08;0.98;;;0.30;;
80981;SDS011;70440;53.064;8.926;2024-03-08T02:19:33;0.98;;;0.50;;
80981;SDS011;70440;53.064;8.926;2024-03-08T02:22:01;1.33;;;0.93;;
80981;SDS011;70440;53.064;8.926;2024-03-08T02:24:29;0.30;;;0.30;;
80981;SDS011;70440;53.064;8.926;2024-03-08T02:26:55;0.45;;;0.40;;
80981;SDS011;70440;53.064;8.926;2024-03-08T02:29:21;0.60;;;0.40;;
80981;SDS011;70440;53.064;8.926;2024-03-08T02:31:47;0.70;;;0.30;;
80981;SDS011;70440;53.064;8.926;2024-03-08T02:34:12;0.30;;;0.30;;
80981;SDS011;70440;53.064;8.926;2024-03-08T02:36:38;0.63;;;0.60;;
80981;SDS011;70440;53.064;8.926;2024-03-08T02:39:03;0.60;;;0.40;;
80981;SDS011;70440;53.064;8.926;2024-03-08T02:41:30;0.95;;;0.50;;
80981;SDS011;70440;53.064;8.926;2024-03-08T02:43:55;0.43;;;0.43;;
80981;SDS011;70440;53.064;8.926;2024-03-08T02:46:21;1.00;;;0.70;;
80981;SDS011;70440;53.064;8.926;2024-03-08T02:48:46;1.55;;;0.60;;
80981;SDS011;70440;53.064;8.926;2024-03-08T02:51:12;0.73;;;0.57;;
80981;SDS011;70440;53.064;8.926;2024-03-08T02:53:38;0.55;;;0.43;;
80981;SDS011;70440;53.064;8.926;2024-03-08T02:56:04;0.70;;;0.50;;
80981;SDS011;70440;53.064;8.926;2024-03-08T02:58:29;0.45;;;0.40;;
80981;SDS011;70440;53.064;8.926;2024-03-08T03:00:55;0.77;;;0.52;;
80981;SDS011;70440;53.064;8.926;2024-03-08T03:03:22;0.75;;;0.40;;
80981;SDS011;70440;53.064;8.926;2024-03-08T03:05:47;0.40;;;0.40;;
80981;SDS011;70440;53.064;8.926;2024-03-08T03:08:13;0.57;;;0.50;;
80981;SDS011;70440;53.064;8.926;2024-03-08T03:10:38;0.70;;;0.47;;
80981;SDS011;70440;53.064;8.926;2024-03-08T03:13:03;0.30;;;0.30;;
80981;SDS011;70440;53.064;8.926;2024-03-08T03:15:31;0.30;;;0.30;;
80981;SDS011;70440;53.064;8.926;2024-03-08T03:17:58;0.57;;;0.30;;
80981;SDS011;70440;53.064;8.926;2024-03-08T03:20:24;0.30;;;0.30;;
80981;SDS011;70440;53.064;8.926;2024-03-08T03:22:52;0.82;;;0.50;;
80981;SDS011;70440;53.064;8.926;2024-03-08T03:25:20;0.60;;;0.60;;
80981;SDS011;70440;53.064;8.926;2024-03-08T03:27:53;1.45;;;0.68;;
80981;SDS011;70440;53.064;8.926;2024-03-08T03:30:21;0.70;;;0.40;;
80981;SDS011;70440;53.064;8.926;2024-03-08T03:32:48;0.82;;;0.40;;
80981;SDS011;70440;53.064;8.926;2024-03-08T03:35:16;0.43;;;0.30;;
80981;SDS011;70440;53.064;8.926;2024-03-08T03:37:42;0.60;;;0.38;;
80981;SDS011;70440;53.064;8.926;2024-03-08T03:40:10;0.38;;;0.28;;
80981;SDS011;70440;53.064;8.926;2024-03-08T03:42:36;0.60;;;0.50;;
80981;SDS011;70440;53.064;8.926;2024-03-08T03:45:03;0.38;;;0.28;;
80981;SDS011;70440;53.064;8.926;2024-03-08T03:47:30;0.82;;;0.50;;
80981;SDS011;70440;53.064;8.926;2024-03-08T03:49:55;0.50;;;0.40;;
80981;SDS011;70440;53.064;8.926;2024-03-08T03:52:21;0.40;;;0.30;;
80981;SDS011;70440;53.064;8.926;2024-03-08T03:54:46;0.38;;;0.38;;
80981;SDS011;70440;53.064;8.926;2024-03-08T03:57:12;0.63;;;0.38;;
80981;SDS011;70440;53.064;8.926;2024-03-08T03:59:37;0.30;;;0.30;;
80981;SDS011;70440;53.064;8.926;2024-03-08T04:02:02;0.43;;;0.40;;
80981;SDS011;70440;53.064;8.926;2024-03-08T04:04:28;0.57;;;0.40;;
80981;SDS011;70440;53.064;8.926;2024-03-08T04:06:54;0.52;;;0.35;;
80981;SDS011;70440;53.064;8.926;2024-03-08T04:09:19;0.47;;;0.40;;
80981;SDS011;70440;53.064;8.926;2024-03-08T04:11:47;0.95;;;0.40;;
80981;SDS011;70440;53.064;8.926;2024-03-08T04:14:12;0.30;;;0.22;;
80981;SDS011;70440;53.064;8.926;2024-03-08T04:16:38;0.22;;;0.20;;
80981;SDS011;70440;53.064;8.926;2024-03-08T04:19:03;0.43;;;0.40;;
80981;SDS011;70440;53.064;8.926;2024-03-08T04:21:32;0.40;;;0.40;;
80981;SDS011;70440;53.064;8.926;2024-03-08T04:23:57;0.32;;;0.25;;
80981;SDS011;70440;53.064;8.926;2024-03-08T04:26:23;0.30;;;0.22;;
80981;SDS011;70440;53.064;8.926;2024-03-08T04:28:48;0.28;;;0.20;;
80981;SDS011;70440;53.064;8.926;2024-03-08T04:31:13;0.73;;;0.52;;
80981;SDS011;70440;53.064;8.926;2024-03-08T04:33:40;0.20;;;0.20;;
80981;SDS011;70440;53.064;8.926;2024-03-08T04:36:06;0.50;;;0.50;;
80981;SDS011;70440;53.064;8.926;2024-03-08T04:38:32;0.45;;;0.32;;
80981;SDS011;70440;53.064;8.926;2024-03-08T04:40:58;0.35;;;0.30;;
80981;SDS011;70440;53.064;8.926;2024-03-08T04:43:24;0.65;;;0.35;;
80981;SDS011;70440;53.064;8.926;2024-03-08T04:45:51;0.50;;;0.50;;
80981;SDS011;70440;53.064;8.926;2024-03-08T04:48:17;0.20;;;0.20;;
80981;SDS011;70440;53.064;8.926;2024-03-08T04:50:42;0.95;;;0.40;;
80981;SDS011;70440;53.064;8.926;2024-03-08T04:53:09;0.22;;;0.17;;
80981;SDS011;70440;53.064;8.926;2024-03-08T04:55:35;1.00;;;0.60;;
80981;SDS011;70440;53.064;8.926;2024-03-08T04:58:00;0.30;;;0.25;;
80981;SDS011;70440;53.064;8.926;2024-03-08T05:00:25;0.77;;;0.55;;
80981;SDS011;70440;53.064;8.926;2024-03-08T05:02:51;0.40;;;0.40;;
80981;SDS011;70440;53.064;8.926;2024-03-08T05:05:18;1.08;;;0.50;;
80981;SDS011;70440;53.064;8.926;2024-03-08T05:07:43;0.60;;;0.50;;
80981;SDS011;70440;53.064;8.926;2024-03-08T05:10:10;0.55;;;0.40;;
80981;SDS011;70440;53.064;8.926;2024-03-08T05:12:36;0.70;;;0.70;;
80981;SDS011;70440;53.064;8.926;2024-03-08T05:15:03;1.27;;;0.70;;
80981;SDS011;70440;53.064;8.926;2024-03-08T05:17:30;0.95;;;0.43;;
80981;SDS011;70440;53.064;8.926;2024-03-08T05:19:55;0.40;;;0.30;;
80981;SDS011;70440;53.064;8.926;2024-03-08T05:22:20;1.02;;;0.60;;
80981;SDS011;70440;53.064;8.926;2024-03-08T05:24:46;0.50;;;0.40;;
80981;SDS011;70440;53.064;8.926;2024-03-08T05:27:11;0.98;;;0.60;;
80981;SDS011;70440;53.064;8.926;2024-03-08T05:29:37;0.75;;;0.40;;
80981;SDS011;70440;53.064;8.926;2024-03-08T05:32:03;0.35;;;0.35;;
80981;SDS011;70440;53.064;8.926;2024-03-08T05:34:29;0.77;;;0.40;;
80981;SDS011;70440;53.064;8.926;2024-03-08T05:36:54;1.27;;;0.70;;
80981;SDS011;70440;53.064;8.926;2024-03-08T05:39:20;0.43;;;0.30;;
80981;SDS011;70440;53.064;8.926;2024-03-08T05:41:45;0.98;;;0.40;;
80981;SDS011;70440;53.064;8.926;2024-03-08T05:44:11;0.95;;;0.40;;
80981;SDS011;70440;53.064;8.926;2024-03-08T05:46:37;0.57;;;0.50;;
80981;SDS011;70440;53.064;8.926;2024-03-08T05:49:02;0.65;;;0.40;;
80981;SDS011;70440;53.064;8.926;2024-03-08T05:51:34;0.90;;;0.70;;
80981;SDS011;70440;53.064;8.926;2024-03-08T05:56:27;3.15;;;1.48;;
80981;SDS011;70440;53.064;8.926;2024-03-08T05:58:54;2.95;;;1.52;;
80981;SDS011;70440;53.064;8.926;2024-03-08T06:01:19;0.93;;;0.70;;
80981;SDS011;70440;53.064;8.926;2024-03-08T06:03:44;0.68;;;0.52;;
80981;SDS011;70440;53.064;8.926;2024-03-08T06:06:13;1.02;;;0.68;;
80981;SDS011;70440;53.064;8.926;2024-03-08T06:08:39;0.60;;;0.52;;
80981;SDS011;70440;53.064;8.926;2024-03-08T06:11:05;1.52;;;0.80;;
80981;SDS011;70440;53.064;8.926;2024-03-08T06:13:31;0.75;;;0.47;;
80981;SDS011;70440;53.064;8.926;2024-03-08T06:15:57;1.02;;;0.50;;
80981;SDS011;70440;53.064;8.926;2024-03-08T06:18:22;1.42;;;1.02;;
80981;SDS011;70440;53.064;8.926;2024-03-08T06:20:48;0.88;;;0.70;;
80981;SDS011;70440;53.064;8.926;2024-03-08T06:23:13;0.85;;;0.50;;
80981;SDS011;70440;53.064;8.926;2024-03-08T06:25:43;1.67;;;1.00;;
80981;SDS011;70440;53.064;8.926;2024-03-08T06:28:08;1.55;;;0.50;;
80981;SDS011;70440;53.064;8.926;2024-03-08T06:30:34;0.90;;;0.60;;
80981;SDS011;70440;53.064;8.926;2024-03-08T06:32:59;1.30;;;0.65;;
80981;SDS011;70440;53.064;8.926;2024-03-08T06:35:25;1.23;;;0.70;;
80981;SDS011;70440;53.064;8.926;2024-03-08T06:37:50;1.05;;;0.73;;
80981;SDS011;70440;53.064;8.926;2024-03-08T06:40:16;0.95;;;0.68;;
80981;SDS011;70440;53.064;8.926;2024-03-08T06:42:41;0.73;;;0.50;;
80981;SDS011;70440;53.064;8.926;2024-03-08T06:45:06;1.35;;;0.70;;
80981;SDS011;70440;53.064;8.926;2024-03-08T06:47:34;1.20;;;0.80;;
80981;SDS011;70440;53.064;8.926;2024-03-08T06:49:59;1.23;;;0.60;;
80981;SDS011;70440;53.064;8.926;2024-03-08T06:52:25;0.93;;;0.80;;
80981;SDS011;70440;53.064;8.926;2024-03-08T06:54:50;1.40;;;0.90;;
80981;SDS011;70440;53.064;8.926;2024-03-08T06:57:17;1.08;;;0.70;;
80981;SDS011;70440;53.064;8.926;2024-03-08T06:59:43;1.30;;;0.60;;
80981;SDS011;70440;53.064;8.926;2024-03-08T07:02:09;0.70;;;0.70;;
80981;SDS011;70440;53.064;8.926;2024-03-08T07:04:35;1.40;;;0.77;;
80981;SDS011;70440;53.064;8.926;2024-03-08T07:07:03;1.55;;;0.82;;
80981;SDS011;70440;53.064;8.926;2024-03-08T07:09:29;1.45;;;0.80;;
80981;SDS011;70440;53.064;8.926;2024-03-08T07:11:54;1.90;;;1.35;;
80981;SDS011;70440;53.064;8.926;2024-03-08T07:14:21;1.98;;;1.17;;
80981;SDS011;70440;53.064;8.926;2024-03-08T07:16:49;3.13;;;1.17;;
80981;SDS011;70440;53.064;8.926;2024-03-08T07:19:15;1.75;;;1.05;;
80981;SDS011;70440;53.064;8.926;2024-03-08T07:21:41;1.83;;;1.17;;
80981;SDS011;70440;53.064;8.926;2024-03-08T07:24:07;1.80;;;1.05;;
80981;SDS011;70440;53.064;8.926;2024-03-08T07:26:53;0.90;;;0.80;;
80981;SDS011;70440;53.064;8.926;2024-03-08T07:29:19;1.90;;;1.05;;
80981;SDS011;70440;53.064;8.926;2024-03-08T07:31:44;1.80;;;0.90;;
80981;SDS011;70440;53.064;8.926;2024-03-08T07:34:16;2.35;;;0.90;;
80981;SDS011;70440;53.064;8.926;2024-03-08T07:36:41;1.92;;;1.35;;
80981;SDS011;70440;53.064;8.926;2024-03-08T07:39:07;2.08;;;1.23;;
80981;SDS011;70440;53.064;8.926;2024-03-08T07:44:01;1.63;;;0.88;;
80981;SDS011;70440;53.064;8.926;2024-03-08T07:46:28;2.55;;;1.40;;
80981;SDS011;70440;53.064;8.926;2024-03-08T07:48:54;2.00;;;1.10;;
80981;SDS011;70440;53.064;8.926;2024-03-08T07:51:19;2.00;;;1.27;;
80981;SDS011;70440;53.064;8.926;2024-03-08T07:53:45;1.92;;;1.30;;
80981;SDS011;70440;53.064;8.926;2024-03-08T07:56:10;2.33;;;1.30;;
80981;SDS011;70440;53.064;8.926;2024-03-08T07:58:38;1.58;;;1.35;;
80981;SDS011;70440;53.064;8.926;2024-03-08T08:01:05;2.15;;;1.13;;
80981;SDS011;70440;53.064;8.926;2024-03-08T08:03:31;2.88;;;1.80;;
80981;SDS011;70440;53.064;8.926;2024-03-08T08:05:56;2.17;;;1.15;;
80981;SDS011;70440;53.064;8.926;2024-03-08T08:08:21;3.00;;;1.80;;
80981;SDS011;70440;53.064;8.926;2024-03-08T08:10:47;1.38;;;0.85;;
80981;SDS011;70440;53.064;8.926;2024-03-08T08:13:12;1.50;;;1.33;;
80981;SDS011;70440;53.064;8.926;2024-03-08T08:15:37;2.50;;;1.52;;
80981;SDS011;70440;53.064;8.926;2024-03-08T08:18:03;1.35;;;0.90;;
80981;SDS011;70440;53.064;8.926;2024-03-08T08:20:30;1.63;;;1.10;;
80981;SDS011;70440;53.064;8.926;2024-03-08T08:22:56;2.55;;;1.52;;
80981;SDS011;70440;53.064;8.926;2024-03-08T08:25:21;1.40;;;0.95;;
80981;SDS011;70440;53.064;8.926;2024-03-08T08:27:49;1.88;;;1.23;;
80981;SDS011;70440;53.064;8.926;2024-03-08T08:30:14;1.77;;;1.20;;
80981;SDS011;70440;53.064;8.926;2024-03-08T08:32:40;2.00;;;1.75;;
80981;SDS011;70440;53.064;8.926;2024-03-08T08:35:07;1.40;;;1.25;;
80981;SDS011;70440;53.064;8.926;2024-03-08T08:37:38;2.83;;;1.67;;
80981;SDS011;70440;53.064;8.926;2024-03-08T08:40:04;1.50;;;1.20;;
80981;SDS011;70440;53.064;8.926;2024-03-08T08:42:34;1.92;;;1.17;;
80981;SDS011;70440;53.064;8.926;2024-03-08T08:45:00;2.05;;;1.13;;
80981;SDS011;70440;53.064;8.926;2024-03-08T08:47:26;1.38;;;1.00;;
80981;SDS011;70440;53.064;8.926;2024-03-08T08:49:51;1.75;;;1.60;;
80981;SDS011;70440;53.064;8.926;2024-03-08T08:52:17;1.27;;;1.15;;
80981;SDS011;70440;53.064;8.926;2024-03-08T08:54:43;2.33;;;1.88;;
80981;SDS011;70440;53.064;8.926;2024-03-08T08:57:09;1.60;;;1.30;;
80981;SDS011;70440;53.064;8.926;2024-03-08T08:59:35;3.10;;;2.25;;
80981;SDS011;70440;53.064;8.926;2024-03-08T09:02:05;2.35;;;1.55;;
80981;SDS011;70440;53.064;8.926;2024-03-08T09:04:31;1.92;;;1.48;;
80981;SDS011;70440;53.064;8.926;2024-03-08T09:06:56;2.20;;;1.88;;
80981;SDS011;70440;53.064;8.926;2024-03-08T09:09:22;2.38;;;1.48;;
80981;SDS011;70440;53.064;8.926;2024-03-08T09:11:47;2.53;;;2.13;;
80981;SDS011;70440;53.064;8.926;2024-03-08T09:14:14;2.38;;;1.45;;
80981;SDS011;70440;53.064;8.926;2024-03-08T09:16:40;2.55;;;1.90;;
80981;SDS011;70440;53.064;8.926;2024-03-08T09:19:05;1.90;;;1.60;;
80981;SDS011;70440;53.064;8.926;2024-03-08T09:21:31;3.83;;;2.28;;
80981;SDS011;70440;53.064;8.926;2024-03-08T09:23:57;2.33;;;1.63;;
80981;SDS011;70440;53.064;8.926;2024-03-08T09:26:23;3.03;;;2.20;;
80981;SDS011;70440;53.064;8.926;2024-03-08T09:28:49;2.38;;;1.92;;
80981;SDS011;70440;53.064;8.926;2024-03-08T09:31:14;2.13;;;1.90;;
80981;SDS011;70440;53.064;8.926;2024-03-08T09:33:40;2.58;;;1.77;;
80981;SDS011;70440;53.064;8.926;2024-03-08T09:36:07;2.28;;;2.00;;
80981;SDS011;70440;53.064;8.926;2024-03-08T09:38:32;3.00;;;1.95;;
80981;SDS011;70440;53.064;8.926;2024-03-08T09:40:59;2.25;;;2.05;;
80981;SDS011;70440;53.064;8.926;2024-03-08T09:43:26;2.90;;;2.28;;
80981;SDS011;70440;53.064;8.926;2024-03-08T09:45:53;2.53;;;2.33;;
80981;SDS011;70440;53.064;8.926;2024-03-08T09:48:18;2.30;;;2.00;;
80981;SDS011;70440;53.064;8.926;2024-03-08T09:50:44;4.65;;;2.50;;
80981;SDS011;70440;53.064;8.926;2024-03-08T09:53:11;2.92;;;2.13;;
80981;SDS011;70440;53.064;8.926;2024-03-08T09:55:37;2.30;;;2.00;;
80981;SDS011;70440;53.064;8.926;2024-03-08T09:58:05;2.63;;;2.13;;
80981;SDS011;70440;53.064;8.926;2024-03-08T10:01:01;2.33;;;2.13;;
80981;SDS011;70440;53.064;8.926;2024-03-08T10:03:29;2.63;;;1.73;;
80981;SDS011;70440;53.064;8.926;2024-03-08T10:05:58;2.92;;;2.00;;
80981;SDS011;70440;53.064;8.926;2024-03-08T10:08:27;1.80;;;1.50;;
80981;SDS011;70440;53.064;8.926;2024-03-08T10:10:54;2.30;;;1.95;;
80981;SDS011;70440;53.064;8.926;2024-03-08T10:13:20;2.05;;;1.70;;
80981;SDS011;70440;53.064;8.926;2024-03-08T10:15:45;2.40;;;2.10;;
80981;SDS011;70440;53.064;8.926;2024-03-08T10:18:11;3.30;;;2.05;;
80981;SDS011;70440;53.064;8.926;2024-03-08T10:20:36;3.45;;;2.63;;
80981;SDS011;70440;53.064;8.926;2024-03-08T10:23:02;2.13;;;1.88;;
80981;SDS011;70440;53.064;8.926;2024-03-08T10:25:30;1.92;;;1.67;;
80981;SDS011;70440;53.064;8.926;2024-03-08T10:27:56;4.50;;;2.00;;
80981;SDS011;70440;53.064;8.926;2024-03-08T10:30:21;3.30;;;3.00;;
80981;SDS011;70440;53.064;8.926;2024-03-08T10:32:47;2.42;;;2.22;;
80981;SDS011;70440;53.064;8.926;2024-03-08T10:35:12;2.80;;;2.40;;
80981;SDS011;70440;53.064;8.926;2024-03-08T10:37:43;3.60;;;2.55;;
80981;SDS011;70440;53.064;8.926;2024-03-08T10:40:13;2.13;;;1.70;;
80981;SDS011;70440;53.064;8.926;2024-03-08T10:42:49;2.50;;;2.08;;
80981;SDS011;70440;53.064;8.926;2024-03-08T10:47:49;3.38;;;1.88;;
80981;SDS011;70440;53.064;8.926;2024-03-08T10:50:18;2.08;;;1.65;;
80981;SDS011;70440;53.064;8.926;2024-03-08T10:52:49;2.67;;;1.77;;
80981;SDS011;70440;53.064;8.926;2024-03-08T10:55:15;2.00;;;1.60;;
80981;SDS011;70440;53.064;8.926;2024-03-08T10:57:42;1.92;;;1.58;;
80981;SDS011;70440;53.064;8.926;2024-03-08T11:00:08;2.10;;;1.90;;
80981;SDS011;70440;53.064;8.926;2024-03-08T11:02:36;2.45;;;1.83;;
80981;SDS011;70440;53.064;8.926;2024-03-08T11:05:03;3.60;;;2.65;;
80981;SDS011;70440;53.064;8.926;2024-03-08T11:07:30;3.47;;;2.38;;
80981;SDS011;70440;53.064;8.926;2024-03-08T11:09:59;2.13;;;1.73;;
80981;SDS011;70440;53.064;8.926;2024-03-08T11:12:29;3.03;;;2.33;;
80981;SDS011;70440;53.064;8.926;2024-03-08T11:15:11;2.35;;;1.90;;
80981;SDS011;70440;53.064;8.926;2024-03-08T11:20:04;2.22;;;2.00;;
80981;SDS011;70440;53.064;8.926;2024-03-08T11:22:40;3.63;;;2.72;;
80981;SDS011;70440;53.064;8.926;2024-03-08T11:25:08;2.25;;;1.90;;
80981;SDS011;70440;53.064;8.926;2024-03-08T11:27:35;1.80;;;1.70;;
80981;SDS011;70440;53.064;8.926;2024-03-08T11:32:35;1.90;;;1.70;;
80981;SDS011;70440;53.064;8.926;2024-03-08T11:35:01;3.05;;;2.42;;
80981;SDS011;70440;53.064;8.926;2024-03-08T11:37:30;2.30;;;1.83;;
80981;SDS011;70440;53.064;8.926;2024-03-08T11:39:59;1.65;;;1.55;;
80981;SDS011;70440;53.064;8.926;2024-03-08T11:42:26;2.45;;;2.20;;
80981;SDS011;70440;53.064;8.926;2024-03-08T11:44:52;3.13;;;2.67;;
80981;SDS011;70440;53.064;8.926;2024-03-08T11:47:18;2.40;;;2.20;;
80981;SDS011;70440;53.064;8.926;2024-03-08T11:49:43;2.42;;;1.83;;
80981;SDS011;70440;53.064;8.926;2024-03-08T11:52:10;2.85;;;2.17;;
80981;SDS011;70440;53.064;8.926;2024-03-08T11:54:38;2.78;;;1.90;;
80981;SDS011;70440;53.064;8.926;2024-03-08T11:57:04;2.58;;;2.08;;
80981;SDS011;70440;53.064;8.926;2024-03-08T11:59:29;2.20;;;1.70;;
80981;SDS011;70440;53.064;8.926;2024-03-08T12:02:05;1.67;;;1.48;;
80981;SDS011;70440;53.064;8.926;2024-03-08T12:04:31;1.92;;;1.35;;
80981;SDS011;70440;53.064;8.926;2024-03-08T12:07:00;2.75;;;2.03;;
80981;SDS011;70440;53.064;8.926;2024-03-08T12:09:34;1.83;;;1.55;;
80981;SDS011;70440;53.064;8.926;2024-03-08T12:12:01;1.83;;;1.65;;
80981;SDS011;70440;53.064;8.926;2024-03-08T12:14:28;1.77;;;1.50;;
80981;SDS011;70440;53.064;8.926;2024-03-08T12:16:53;2.45;;;2.05;;
80981;SDS011;70440;53.064;8.926;2024-03-08T12:19:19;3.22;;;2.17;;
80981;SDS011;70440;53.064;8.926;2024-03-08T12:21:44;1.92;;;1.73;;
80981;SDS011;70440;53.064;8.926;2024-03-08T12:24:14;2.50;;;1.95;;
80981;SDS011;70440;53.064;8.926;2024-03-08T12:26:41;2.97;;;2.65;;
80981;SDS011;70440;53.064;8.926;2024-03-08T12:31:57;2.92;;;2.40;;
80981;SDS011;70440;53.064;8.926;2024-03-08T12:34:24;2.95;;;1.85;;
80981;SDS011;70440;53.064;8.926;2024-03-08T12:36:50;1.58;;;1.48;;
80981;SDS011;70440;53.064;8.926;2024-03-08T12:39:19;1.52;;;1.17;;
80981;SDS011;70440;53.064;8.926;2024-03-08T12:41:47;3.03;;;2.28;;
80981;SDS011;70440;53.064;8.926;2024-03-08T12:44:13;2.20;;;2.00;;
80981;SDS011;70440;53.064;8.926;2024-03-08T12:46:38;4.03;;;2.30;;
80981;SDS011;70440;53.064;8.926;2024-03-08T12:49:08;2.45;;;2.03;;
80981;SDS011;70440;53.064;8.926;2024-03-08T12:51:34;1.92;;;1.45;;
80981;SDS011;70440;53.064;8.926;2024-03-08T12:54:00;2.88;;;2.38;;
80981;SDS011;70440;53.064;8.926;2024-03-08T12:56:29;2.58;;;2.10;;
80981;SDS011;70440;53.064;8.926;2024-03-08T12:58:57;2.08;;;1.88;;
80981;SDS011;70440;53.064;8.926;2024-03-08T13:01:22;2.22;;;1.65;;
80981;SDS011;70440;53.064;8.926;2024-03-08T13:03:48;1.70;;;1.33;;
80981;SDS011;70440;53.064;8.926;2024-03-08T13:06:14;1.70;;;1.50;;
80981;SDS011;70440;53.064;8.926;2024-03-08T13:08:40;2.35;;;1.83;;
80981;SDS011;70440;53.064;8.926;2024-03-08T13:11:06;2.13;;;1.80;;
80981;SDS011;70440;53.064;8.926;2024-03-08T13:13:32;1.50;;;1.23;;
80981;SDS011;70440;53.064;8.926;2024-03-08T13:16:00;1.73;;;1.50;;
80981;SDS011;70440;53.064;8.926;2024-03-08T13:18:26;3.70;;;3.22;;
80981;SDS011;70440;53.064;8.926;2024-03-08T13:20:52;2.40;;;1.83;;
80981;SDS011;70440;53.064;8.926;2024-03-08T13:23:18;2.38;;;1.60;;
80981;SDS011;70440;53.064;8.926;2024-03-08T13:25:43;1.80;;;1.50;;
80981;SDS011;70440;53.064;8.926;2024-03-08T13:28:09;2.20;;;2.00;;
80981;SDS011;70440;53.064;8.926;2024-03-08T13:30:35;2.00;;;1.77;;
80981;SDS011;70440;53.064;8.926;2024-03-08T13:33:01;2.80;;;2.20;;
80981;SDS011;70440;53.064;8.926;2024-03-08T13:35:29;1.90;;;1.55;;
80981;SDS011;70440;53.064;8.926;2024-03-08T13:37:55;1.73;;;1.63;;
80981;SDS011;70440;53.064;8.926;2024-03-08T13:40:20;1.50;;;1.13;;
80981;SDS011;70440;53.064;8.926;2024-03-08T13:42:46;1.90;;;1.55;;
80981;SDS011;70440;53.064;8.926;2024-03-08T13:45:14;2.50;;;1.80;;
80981;SDS011;70440;53.064;8.926;2024-03-08T13:47:42;2.03;;;1.83;;
80981;SDS011;70440;53.064;8.926;2024-03-08T13:50:08;2.00;;;1.65;;
80981;SDS011;70440;53.064;8.926;2024-03-08T13:52:38;1.60;;;1.50;;
80981;SDS011;70440;53.064;8.926;2024-03-08T13:55:04;1.40;;;1.20;;
80981;SDS011;70440;53.064;8.926;2024-03-08T13:57:30;2.13;;;1.30;;
80981;SDS011;70440;53.064;8.926;2024-03-08T13:59:56;1.73;;;1.40;;
80981;SDS011;70440;53.064;8.926;2024-03-08T14:02:22;1.95;;;1.42;;
80981;SDS011;70440;53.064;8.926;2024-03-08T14:04:52;1.73;;;1.40;;
80981;SDS011;70440;53.064;8.926;2024-03-08T14:07:18;2.15;;;1.63;;
80981;SDS011;70440;53.064;8.926;2024-03-08T14:09:43;1.50;;;1.40;;
80981;SDS011;70440;53.064;8.926;2024-03-08T14:12:09;1.52;;;1.40;;
80981;SDS011;70440;53.064;8.926;2024-03-08T14:14:35;1.95;;;1.67;;
80981;SDS011;70440;53.064;8.926;2024-03-08T14:17:01;1.88;;;1.52;;
80981;SDS011;70440;53.064;8.926;2024-03-08T14:19:27;1.80;;;1.60;;
80981;SDS011;70440;53.064;8.926;2024-03-08T14:21:52;1.23;;;1.13;;
80981;SDS011;70440;53.064;8.926;2024-03-08T14:24:18;1.77;;;1.50;;
80981;SDS011;70440;53.064;8.926;2024-03-08T14:26:44;1.65;;;1.30;;
80981;SDS011;70440;53.064;8.926;2024-03-08T14:29:09;1.73;;;1.50;;
80981;SDS011;70440;53.064;8.926;2024-03-08T14:31:35;1.83;;;1.45;;
80981;SDS011;70440;53.064;8.926;2024-03-08T14:34:01;2.10;;;1.55;;
80981;SDS011;70440;53.064;8.926;2024-03-08T14:36:28;2.40;;;1.90;;
80981;SDS011;70440;53.064;8.926;2024-03-08T14:38:54;2.17;;;1.70;;
80981;SDS011;70440;53.064;8.926;2024-03-08T14:41:19;1.70;;;1.60;;
80981;SDS011;70440;53.064;8.926;2024-03-08T14:43:45;1.40;;;1.30;;
80981;SDS011;70440;53.064;8.926;2024-03-08T14:46:11;2.42;;;2.08;;
80981;SDS011;70440;53.064;8.926;2024-03-08T14:48:45;1.90;;;1.67;;
80981;SDS011;70440;53.064;8.926;2024-03-08T14:51:12;2.55;;;2.20;;
80981;SDS011;70440;53.064;8.926;2024-03-08T14:53:42;2.53;;;2.08;;
80981;SDS011;70440;53.064;8.926;2024-03-08T14:56:10;2.40;;;1.95;;
80981;SDS011;70440;53.064;8.926;2024-03-08T14:58:41;2.58;;;1.75;;